Lithia, Florida
Current Conditions -  °F | °C
As of 11:35 AM on Thursday 23 Oct 2014 (Local Time) from KPCM Reporting Station
Clear Clear  
Wind Chill: 79°   Ceiling: Unl
Heat Index: 80°   Visibility: 10mi
Dew Point: 57°   Wind: 9mph
Humidity: 47%   Direction: 60°ENE
Pressure: 30.03"   Gusts: NA
Location:  27.85°N, 82.17°W
Report Text: KPCM 231535Z AUTO 06008KT 10SM CLR 26/14 A3003 RMK AO2
Loading
Personal Weather Stations






























Interactive Weather Map
Tropical Storm Tracking
New forecast layout! Learn more

10-Day Weather Forecast

Advertisements
Track Severe Weather on mobile